Time;durP1;ratioP1;P1;durP2;ratioP2;P2;SDS_P1;SDS_P2;PMS_P1;PMS_P2;Temp;Humidity;BMP_temperature;BMP_pressure;BME280_temperature;BME280_humidity;BME280_pressure;Samples;Min_cycle;Max_cycle;Signal;HPM_P1;HPM_P2
2023/01/19 00:01:18;;;;;;;0.50;0.50;;;;;;;0.44;89.94;98665.47;5107596;28;20076;-73
2023/01/19 00:03:44;;;;;;;0.52;0.52;;;;;;;0.40;89.96;98663.75;5108006;28;20031;-73
2023/01/19 00:06:10;;;;;;;0.70;0.70;;;;;;;0.40;90.33;98664.59;5089393;28;20031;-73
2023/01/19 00:08:36;;;;;;;0.50;0.50;;;;;;;0.43;90.23;98659.50;5088885;28;20071;-73
2023/01/19 00:11:02;;;;;;;0.50;0.50;;;;;;;0.41;90.25;98650.13;5107734;28;20031;-73
2023/01/19 00:13:27;;;;;;;0.50;0.50;;;;;;;0.48;90.42;98668.03;5107401;28;20480;-73
2023/01/19 00:15:53;;;;;;;0.95;0.95;;;;;;;0.50;90.32;98665.50;5107519;28;20035;-72
2023/01/19 00:18:18;;;;;;;0.50;0.50;;;;;;;0.56;90.16;98662.13;5107266;28;20031;-73
2023/01/19 00:20:45;;;;;;;0.50;0.50;;;;;;;0.50;90.40;98660.38;5107447;28;20542;-74
2023/01/19 00:23:11;;;;;;;0.60;0.60;;;;;;;0.49;90.33;98653.59;5107173;28;20026;-72
2023/01/19 00:25:43;;;;;;;0.60;0.60;;;;;;;0.56;90.17;98662.13;5088961;28;20028;-75
2023/01/19 00:28:14;;;;;;;0.70;0.70;;;;;;;0.47;90.27;98661.25;5105938;28;20051;-71
2023/01/19 00:30:41;;;;;;;0.50;0.50;;;;;;;0.46;90.21;98664.63;5107109;28;20039;-73
2023/01/19 00:33:06;;;;;;;0.70;0.70;;;;;;;0.41;90.11;98660.34;5107096;28;20027;-73
2023/01/19 00:35:33;;;;;;;0.55;0.55;;;;;;;0.35;90.08;98656.09;5107103;28;20027;-73
2023/01/19 00:37:59;;;;;;;0.50;0.50;;;;;;;0.33;90.08;98660.31;5106848;28;20123;-72
2023/01/19 00:40:24;;;;;;;0.60;0.60;;;;;;;0.27;89.83;98656.06;5088746;28;20077;-74
2023/01/19 00:42:50;;;;;;;0.60;0.60;;;;;;;0.21;90.18;98654.31;5106854;28;20023;-73
2023/01/19 00:45:18;;;;;;;0.50;0.50;;;;;;;0.13;90.40;98650.84;5106850;28;20112;-73
2023/01/19 00:47:45;;;;;;;0.50;0.50;;;;;;;0.21;90.15;98651.75;5088580;28;20020;-72
2023/01/19 00:50:12;;;;;;;0.60;0.60;;;;;;;0.11;90.36;98655.09;5088390;28;20016;-73
2023/01/19 00:52:39;;;;;;;0.50;0.50;;;;;;;0.16;90.35;98655.97;5087430;28;20020;-72
2023/01/19 00:55:06;;;;;;;0.60;0.60;;;;;;;0.18;90.11;98659.38;5106925;28;20024;-72
2023/01/19 00:57:31;;;;;;;0.50;0.50;;;;;;;-0.02;90.31;98637.16;5106734;28;20028;-72
2023/01/19 00:59:57;;;;;;;1.52;1.35;;;;;;;0.11;90.42;98660.22;5106632;28;20031;-72
2023/01/19 01:02:23;;;;;;;1.15;1.15;;;;;;;0.03;90.43;98665.28;5106512;28;20023;-74
2023/01/19 01:04:53;;;;;;;0.50;0.50;;;;;;;-0.04;90.76;98666.91;5106608;28;20027;-73
2023/01/19 01:07:20;;;;;;;0.60;0.60;;;;;;;-0.08;90.85;98660.06;5105124;28;20028;-73
2023/01/19 01:09:45;;;;;;;0.50;0.50;;;;;;;-0.09;90.86;98662.63;5106523;28;20024;-72
2023/01/19 01:12:11;;;;;;;0.50;0.50;;;;;;;-0.07;90.58;98664.34;5088140;28;20030;-72
2023/01/19 01:14:36;;;;;;;0.95;0.95;;;;;;;-0.12;90.47;98663.47;5106864;28;20024;-72
2023/01/19 01:17:01;;;;;;;0.50;0.50;;;;;;;-0.11;90.52;98661.78;5106513;28;20024;-73
2023/01/19 01:19:27;;;;;;;0.57;0.57;;;;;;;-0.16;90.56;98662.56;5087909;28;20395;-73
2023/01/19 01:21:54;;;;;;;0.60;0.60;;;;;;;-0.16;91.18;98660.03;5104906;28;20042;-72
2023/01/19 01:24:19;;;;;;;0.57;0.57;;;;;;;-0.07;90.96;98672.00;5087858;28;20046;-72
2023/01/19 01:26:45;;;;;;;0.50;0.50;;;;;;;-0.23;nan;98670.19;5105981;28;20020;-73
2023/01/19 01:29:10;;;;;;;0.50;0.50;;;;;;;-0.23;91.54;98668.50;5105922;28;20039;-72
2023/01/19 01:31:36;;;;;;;0.50;0.50;;;;;;;-0.24;91.63;98661.69;5087599;28;20190;-72
2023/01/19 01:34:01;;;;;;;0.50;0.50;;;;;;;-0.15;91.21;98671.97;5105802;28;20020;-73
2023/01/19 01:36:30;;;;;;;0.50;0.50;;;;;;;-0.19;91.49;98679.56;5105843;28;20023;-73
2023/01/19 01:38:56;;;;;;;0.60;0.60;;;;;;;-0.18;91.51;98673.63;5100710;28;20041;-73
2023/01/19 01:41:21;;;;;;;0.60;0.60;;;;;;;-0.22;91.62;98680.38;5085769;28;20039;-72
2023/01/19 01:44:00;;;;;;;0.60;0.60;;;;;;;-0.22;91.57;98688.03;5085556;28;20023;-72
2023/01/19 01:46:28;;;;;;;0.50;0.50;;;;;;;-0.23;91.62;98683.78;5085525;28;20016;-73
2023/01/19 01:49:07;;;;;;;0.60;0.60;;;;;;;-0.27;91.94;98690.56;5085242;28;20062;-72
2023/01/19 01:51:40;;;;;;;0.50;0.50;;;;;;;-0.33;91.76;98682.00;5085345;28;20032;-72
2023/01/19 01:54:08;;;;;;;0.50;0.50;;;;;;;-0.29;91.86;98686.31;5084968;28;20039;-72
2023/01/19 01:56:45;;;;;;;0.60;0.60;;;;;;;-0.22;91.78;98695.69;5100905;28;20028;-72
2023/01/19 01:59:24;;;;;;;0.60;0.60;;;;;;;-0.31;91.87;98686.28;5100657;28;20024;-72
2023/01/19 02:04:39;;;;;;;0.50;0.50;;;;;;;-0.33;92.33;98692.19;5085128;28;20039;-72
2023/01/19 02:15:19;;;;;;;0.57;0.57;;;;;;;-0.42;92.36;98686.22;5084988;28;20396;-72
2023/01/19 02:17:45;;;;;;;0.60;0.60;;;;;;;-0.44;92.56;98689.56;5084604;28;20077;-72
2023/01/19 02:20:12;;;;;;;0.60;0.60;;;;;;;-0.40;92.52;98691.31;5084883;28;20028;-72
2023/01/19 02:22:45;;;;;;;0.60;0.60;;;;;;;-0.36;92.28;98698.13;5084731;28;20028;-72
2023/01/19 02:25:10;;;;;;;0.50;0.50;;;;;;;-0.39;92.38;98695.56;5084999;28;20030;-72
2023/01/19 02:27:36;;;;;;;2.72;1.90;;;;;;;-0.41;92.50;98689.59;5083267;28;20059;-73
2023/01/19 02:30:02;;;;;;;0.77;0.77;;;;;;;-0.31;92.29;98700.72;5083753;28;20028;-74
2023/01/19 02:32:28;;;;;;;0.50;0.50;;;;;;;-0.39;92.39;98693.00;5084487;28;20036;-73
2023/01/19 02:34:54;;;;;;;0.50;0.50;;;;;;;-0.36;92.58;98697.28;5084528;28;20024;-72
2023/01/19 02:37:20;;;;;;;0.50;0.50;;;;;;;-0.39;92.65;98698.13;5084263;28;20035;-72
2023/01/19 02:39:49;;;;;;;0.60;0.60;;;;;;;-0.33;92.80;98707.50;5095050;28;20044;-73
2023/01/19 02:42:20;;;;;;;0.50;0.50;;;;;;;-0.39;92.88;98698.13;5086302;28;20020;-73
2023/01/19 02:44:48;;;;;;;0.50;0.50;;;;;;;-0.30;92.97;98712.63;5104600;28;20434;-73
2023/01/19 02:47:13;;;;;;;1.75;1.67;;;;;;;-0.28;93.18;98708.41;5104582;28;20427;-73
2023/01/19 02:49:39;;;;;;;0.50;0.50;;;;;;;-0.24;93.08;98710.16;5103228;28;20049;-72
2023/01/19 02:52:04;;;;;;;0.50;0.50;;;;;;;-0.29;93.18;98704.97;5104486;28;20027;-73
2023/01/19 02:54:59;;;;;;;0.52;0.52;;;;;;;-0.17;93.01;98711.03;5103189;28;20020;-73
2023/01/19 02:57:31;;;;;;;0.55;0.55;;;;;;;-0.18;92.72;98719.53;5103919;28;20038;-73
2023/01/19 03:00:27;;;;;;;0.70;0.70;;;;;;;-0.27;93.04;98713.50;5104316;28;20027;-73
2023/01/19 03:03:04;;;;;;;0.52;0.52;;;;;;;-0.18;92.79;98711.88;5104486;28;20028;-73
2023/01/19 03:05:41;;;;;;;0.57;0.57;;;;;;;-0.23;92.97;98709.31;5103046;28;20024;-73
2023/01/19 03:08:25;;;;;;;0.57;0.57;;;;;;;-0.27;92.79;98718.63;5104172;28;20024;-72
2023/01/19 03:10:59;;;;;;;0.50;0.50;;;;;;;-0.24;92.69;98716.94;5104229;28;20059;-73
2023/01/19 03:13:28;;;;;;;0.60;0.60;;;;;;;-0.33;92.90;98708.38;5104489;28;20027;-73
2023/01/19 03:16:24;;;;;;;0.60;0.60;;;;;;;-0.26;92.78;98702.47;5103863;28;20016;-73
2023/01/19 03:19:07;;;;;;;0.50;0.50;;;;;;;-0.14;92.18;98708.50;5104340;28;20054;-74
2023/01/19 03:21:36;;;;;;;0.60;0.60;;;;;;;-0.15;92.12;98705.13;5104231;28;20031;-72
2023/01/19 03:24:05;;;;;;;0.52;0.52;;;;;;;-0.17;92.43;98695.72;5104249;28;20027;-72
2023/01/19 03:26:37;;;;;;;0.52;0.52;;;;;;;-0.10;92.14;98706.84;5104001;28;20028;-73
2023/01/19 03:29:08;;;;;;;0.60;0.60;;;;;;;-0.19;92.55;98707.63;5102784;28;20028;-73
2023/01/19 03:31:35;;;;;;;0.50;0.50;;;;;;;-0.16;92.49;98716.16;5104162;28;20028;-73
2023/01/19 03:34:09;;;;;;;0.50;0.50;;;;;;;-0.13;92.58;98720.44;5102809;28;20023;-73
2023/01/19 03:36:39;;;;;;;1.63;1.52;;;;;;;-0.08;92.28;98713.66;5104209;28;20039;-73
2023/01/19 03:39:08;;;;;;;0.52;0.52;;;;;;;-0.15;92.33;98717.88;5103783;28;20527;-74
2023/01/19 03:41:35;;;;;;;0.50;0.50;;;;;;;-0.13;92.51;98716.16;5103964;28;20024;-73
2023/01/19 03:44:04;;;;;;;0.60;0.60;;;;;;;-0.17;92.51;98727.19;5104100;28;20031;-73
2023/01/19 03:46:31;;;;;;;1.27;1.27;;;;;;;-0.12;92.00;98727.22;5104163;28;20020;-74
2023/01/19 03:48:58;;;;;;;0.60;0.60;;;;;;;-0.20;92.20;98728.88;5104186;28;20103;-74
2023/01/19 03:51:24;;;;;;;0.50;0.50;;;;;;;-0.26;92.18;98724.56;5104123;28;20024;-74
2023/01/19 03:53:50;;;;;;;0.60;0.60;;;;;;;-0.27;91.75;98717.75;5104411;28;20165;-74
2023/01/19 03:56:17;;;;;;;0.50;0.50;;;;;;;-0.28;92.42;98727.13;5086177;28;20024;-73
2023/01/19 03:58:42;;;;;;;0.90;0.90;;;;;;;-0.32;92.19;98724.53;5103829;28;20027;-74
2023/01/19 04:01:08;;;;;;;0.50;0.50;;;;;;;-0.44;92.47;98715.06;5104063;28;20016;-74
2023/01/19 04:03:33;;;;;;;0.50;0.50;;;;;;;-0.32;92.14;98722.81;5103841;28;20053;-73
2023/01/19 04:05:58;;;;;;;0.50;0.50;;;;;;;-0.42;92.14;98721.91;5103945;28;20024;-74
2023/01/19 04:08:24;;;;;;;0.60;0.60;;;;;;;-0.31;91.61;98714.34;5103686;28;20024;-74
2023/01/19 04:10:49;;;;;;;0.50;0.50;;;;;;;-0.19;90.95;98720.38;5103675;28;20024;-73
2023/01/19 04:13:14;;;;;;;0.55;0.55;;;;;;;-0.25;91.26;98723.72;5103789;28;20023;-73
2023/01/19 04:15:40;;;;;;;0.57;0.57;;;;;;;-0.30;91.14;98723.69;5103844;28;20027;-74
2023/01/19 04:18:05;;;;;;;0.50;0.50;;;;;;;-0.21;91.18;98729.72;5102330;28;20020;-72
2023/01/19 04:20:32;;;;;;;0.98;0.98;;;;;;;-0.33;91.82;98731.31;5085563;28;20028;-73
2023/01/19 04:22:59;;;;;;;0.50;0.50;;;;;;;-0.27;91.95;98733.06;5085380;28;20020;-74
2023/01/19 04:25:25;;;;;;;1.25;1.25;;;;;;;-0.33;92.37;98733.00;5103857;28;20031;-75
2023/01/19 04:27:51;;;;;;;1.35;1.33;;;;;;;-0.31;91.88;98727.09;5106499;28;20106;-75
2023/01/19 04:30:17;;;;;;;0.68;0.68;;;;;;;-0.23;91.82;98737.34;5105856;28;20379;-73
2023/01/19 04:32:43;;;;;;;0.55;0.55;;;;;;;-0.16;91.31;98735.72;5107282;28;20028;-74
2023/01/19 04:35:08;;;;;;;0.50;0.50;;;;;;;-0.07;91.09;98727.28;5107124;28;20026;-72
2023/01/19 04:37:34;;;;;;;0.60;0.60;;;;;;;0.06;89.81;98740.97;5106810;28;20027;-75
2023/01/19 04:39:59;;;;;;;0.60;0.60;;;;;;;0.02;90.35;98739.25;5106624;28;20052;-75
2023/01/19 04:42:26;;;;;;;0.50;0.50;;;;;;;-0.01;90.49;98740.06;5106793;28;20031;-73
2023/01/19 04:44:52;;;;;;;0.80;0.80;;;;;;;0.17;89.58;98734.25;5107031;28;20486;-73
2023/01/19 04:47:18;;;;;;;0.52;0.52;;;;;;;0.21;88.89;98730.88;5107265;28;20028;-72
2023/01/19 04:49:43;;;;;;;0.50;0.50;;;;;;;0.03;89.39;98736.72;5105355;28;20092;-77
2023/01/19 04:52:09;;;;;;;0.50;0.50;;;;;;;-0.09;90.31;98732.34;5106775;28;20096;-77
2023/01/19 04:54:34;;;;;;;0.52;0.52;;;;;;;-0.06;90.10;98727.28;5105343;28;20027;-77
2023/01/19 04:57:00;;;;;;;1.95;1.85;;;;;;;-0.07;90.12;98735.78;5106682;28;20063;-76
2023/01/19 04:59:25;;;;;;;0.60;0.60;;;;;;;0.10;89.28;98740.16;5106621;28;20023;-77
2023/01/19 05:01:51;;;;;;;0.60;0.60;;;;;;;-0.02;89.47;98735.81;5106501;28;20030;-78
2023/01/19 05:04:16;;;;;;;0.60;0.60;;;;;;;-0.15;90.27;98745.06;5105188;28;20392;-74
2023/01/19 05:06:42;;;;;;;2.45;2.35;;;;;;;-0.15;89.83;98732.31;5105210;28;20024;-75
2023/01/19 05:09:07;;;;;;;0.50;0.50;;;;;;;-0.03;89.45;98739.19;5087898;28;20020;-77
2023/01/19 05:11:34;;;;;;;0.60;0.60;;;;;;;-0.04;89.33;98740.91;5105242;28;20035;-74
2023/01/19 05:14:00;;;;;;;0.50;0.50;;;;;;;-0.15;89.47;98740.84;5106309;28;20016;-76
2023/01/19 05:16:25;;;;;;;0.60;0.60;;;;;;;-0.26;90.12;98744.97;5106258;28;20027;-75
2023/01/19 05:18:51;;;;;;;0.60;0.60;;;;;;;-0.16;89.58;98738.28;5106032;28;20056;-76
2023/01/19 05:21:17;;;;;;;0.50;0.50;;;;;;;-0.29;90.13;98744.97;5106013;28;20079;-75
2023/01/19 05:23:42;;;;;;;0.50;0.50;;;;;;;-0.26;89.97;98748.38;5105963;28;20024;-75
2023/01/19 05:26:08;;;;;;;1.55;1.55;;;;;;;-0.22;90.33;98740.78;5104863;28;20019;-74
2023/01/19 05:28:33;;;;;;;0.50;0.50;;;;;;;-0.32;89.79;98730.47;5106077;28;20020;-75
2023/01/19 05:30:59;;;;;;;0.50;0.50;;;;;;;-0.16;89.10;98745.91;5105952;28;20460;-73
2023/01/19 05:33:24;;;;;;;0.50;0.50;;;;;;;-0.28;89.09;98732.22;5105931;28;20024;-74
2023/01/19 05:35:53;;;;;;;0.50;0.50;;;;;;;-0.28;89.28;98742.41;5105778;28;20105;-65
2023/01/19 05:38:20;;;;;;;0.50;0.50;;;;;;;-0.43;89.76;98730.38;5105126;28;20023;-73
2023/01/19 05:40:45;;;;;;;1.08;1.08;;;;;;;-0.37;89.54;98744.88;5105833;28;20115;-74
2023/01/19 05:43:12;;;;;;;0.60;0.60;;;;;;;-0.47;89.89;98740.53;5104602;28;20471;-72
2023/01/19 05:45:40;;;;;;;0.50;0.50;;;;;;;-0.54;89.67;98735.38;5106059;28;20020;-73
2023/01/19 05:48:07;;;;;;;0.50;0.50;;;;;;;-0.39;89.24;98744.00;5105555;28;20078;-74
2023/01/19 05:50:33;;;;;;;0.60;0.60;;;;;;;-0.33;88.62;98753.41;5105530;28;20032;-74
2023/01/19 05:52:59;;;;;;;0.50;0.50;;;;;;;-0.40;88.72;98745.69;5105474;28;20100;-74
2023/01/19 05:55:25;;;;;;;2.35;2.25;;;;;;;-0.31;88.39;98747.50;5104076;28;20030;-72
2023/01/19 05:57:51;;;;;;;0.50;0.50;;;;;;;-0.38;87.82;98740.63;5105378;28;20024;-72
2023/01/19 06:00:16;;;;;;;0.60;0.60;;;;;;;-0.33;88.05;98754.28;5105199;28;20028;-71
2023/01/19 06:02:42;;;;;;;0.50;0.50;;;;;;;-0.44;88.37;98749.06;5105166;28;20091;-73
2023/01/19 06:05:08;;;;;;;0.50;0.50;;;;;;;-0.38;88.70;98758.47;5104066;28;20468;-71
2023/01/19 06:07:33;;;;;;;0.60;0.60;;;;;;;-0.31;88.26;98752.59;5104923;28;20122;-72
2023/01/19 06:09:59;;;;;;;2.88;2.70;;;;;;;-0.35;88.06;98748.28;5105191;28;20044;-73
2023/01/19 06:12:24;;;;;;;0.60;0.60;;;;;;;-0.35;88.03;98758.50;5105072;28;20088;-74
2023/01/19 06:14:50;;;;;;;0.60;0.60;;;;;;;-0.43;88.45;98749.94;5105425;28;20052;-73
2023/01/19 06:17:15;;;;;;;0.60;0.60;;;;;;;-0.44;88.39;98755.84;5105116;28;20024;-74
2023/01/19 06:19:40;;;;;;;0.50;0.50;;;;;;;-0.34;88.01;98760.22;5105126;28;20085;-74
2023/01/19 06:22:06;;;;;;;0.60;0.60;;;;;;;-0.49;88.58;98758.38;5105254;28;20023;-71
2023/01/19 06:24:32;;;;;;;1.73;1.67;;;;;;;-0.54;89.18;98745.56;5104836;28;20028;-69
2023/01/19 06:26:59;;;;;;;0.50;0.50;;;;;;;-0.47;89.02;98761.78;5104963;28;20129;-69
2023/01/19 06:29:26;;;;;;;0.60;0.60;;;;;;;-0.50;88.84;98761.75;5086409;28;20031;-70
2023/01/19 06:31:51;;;;;;;0.60;0.60;;;;;;;-0.47;88.58;98755.81;5086342;28;20106;-70
2023/01/19 06:34:18;;;;;;;0.60;0.60;;;;;;;-0.47;88.40;98760.94;5104841;28;20028;-71
2023/01/19 06:36:44;;;;;;;0.60;0.60;;;;;;;-0.47;88.58;98755.81;5103297;28;20464;-70
2023/01/19 06:39:09;;;;;;;0.75;0.75;;;;;;;-0.43;88.55;98770.34;5104180;28;20088;-69
2023/01/19 06:41:35;;;;;;;0.50;0.50;;;;;;;-0.40;88.51;98768.66;5104627;28;20019;-70
2023/01/19 06:44:01;;;;;;;0.60;0.60;;;;;;;-0.40;88.23;98765.25;5104564;28;20525;-70
2023/01/19 06:46:27;;;;;;;0.60;0.60;;;;;;;-0.55;88.62;98759.16;5104326;28;20024;-68
2023/01/19 06:48:53;;;;;;;0.50;0.50;;;;;;;-0.41;88.58;98772.03;5103886;28;20038;-72
2023/01/19 06:51:19;;;;;;;0.50;0.50;;;;;;;-0.32;88.30;98781.47;5104660;28;20020;-70
2023/01/19 06:53:44;;;;;;;0.60;0.60;;;;;;;-0.39;88.54;98775.47;5104499;28;20023;-71
2023/01/19 06:56:10;;;;;;;0.50;0.50;;;;;;;-0.39;88.48;98772.06;5104684;28;20388;-70
2023/01/19 06:58:35;;;;;;;0.65;0.65;;;;;;;-0.30;88.43;98777.25;5104413;28;20038;-70
2023/01/19 07:01:05;;;;;;;0.50;0.50;;;;;;;-0.44;88.97;98774.56;5104586;28;20070;-71
2023/01/19 07:03:31;;;;;;;0.60;0.60;;;;;;;-0.26;88.44;98790.88;5103952;28;20463;-70
2023/01/19 07:05:57;;;;;;;0.60;0.60;;;;;;;-0.29;88.41;98789.16;5104088;28;20058;-71
2023/01/19 07:08:22;;;;;;;0.52;0.52;;;;;;;-0.28;88.57;98790.88;5104269;28;20024;-69
2023/01/19 07:10:48;;;;;;;0.60;0.60;;;;;;;-0.22;88.40;98799.44;5104072;28;20040;-75
2023/01/19 07:13:14;;;;;;;0.60;0.60;;;;;;;-0.20;88.42;98798.59;5104322;28;20027;-70
2023/01/19 07:15:39;;;;;;;0.50;0.50;;;;;;;-0.29;89.00;98795.97;5104135;28;20055;-71
2023/01/19 07:18:06;;;;;;;0.60;0.60;;;;;;;-0.22;89.06;98802.00;5104113;28;20028;-70
2023/01/19 07:20:36;;;;;;;0.60;0.60;;;;;;;-0.22;89.18;98807.09;5104248;28;20022;-71
2023/01/19 07:23:03;;;;;;;0.50;0.50;;;;;;;-0.14;89.13;98811.41;5103913;28;20020;-70
2023/01/19 07:25:29;;;;;;;0.52;0.52;;;;;;;-0.20;89.32;98807.94;5104256;28;20073;-71
2023/01/19 07:27:58;;;;;;;0.50;0.50;;;;;;;0.05;88.11;98805.63;5104189;28;20024;-70
2023/01/19 07:30:24;;;;;;;0.70;0.70;;;;;;;-0.02;88.29;98813.19;5102664;28;20065;-71
2023/01/19 07:32:49;;;;;;;0.80;0.80;;;;;;;-0.07;88.92;98814.00;5104084;28;20031;-69
2023/01/19 07:35:15;;;;;;;0.50;0.50;;;;;;;-0.02;89.17;98815.75;5104086;28;20024;-70
2023/01/19 07:37:40;;;;;;;0.45;0.45;;;;;;;0.01;89.11;98814.06;5103881;28;20432;-69
2023/01/19 07:40:06;;;;;;;0.60;0.60;;;;;;;0.10;88.78;98806.50;5103904;28;20067;-69
2023/01/19 07:42:32;;;;;;;0.60;0.60;;;;;;;0.07;88.98;98817.53;5103995;28;20027;-69
2023/01/19 07:44:57;;;;;;;0.60;0.60;;;;;;;0.02;89.11;98796.22;5102630;28;20103;-69
2023/01/19 07:47:23;;;;;;;0.50;0.50;;;;;;;0.20;88.83;98799.78;5103869;28;20067;-69
2023/01/19 07:49:48;;;;;;;0.77;0.77;;;;;;;0.34;87.54;98804.97;5102396;28;20027;-69
2023/01/19 07:52:13;;;;;;;0.50;0.50;;;;;;;0.26;87.74;98811.75;5103717;28;20024;-70
2023/01/19 07:54:39;;;;;;;0.60;0.60;;;;;;;0.06;88.06;98786.91;5103562;28;20022;-69
2023/01/19 07:57:04;;;;;;;0.60;0.60;;;;;;;0.21;87.76;98815.09;5103688;28;20016;-70
2023/01/19 07:59:31;;;;;;;0.50;0.50;;;;;;;0.17;88.13;98815.06;5103991;28;20028;-69
2023/01/19 08:01:58;;;;;;;0.60;0.60;;;;;;;0.20;88.17;98809.97;5106866;28;20072;-70
2023/01/19 08:04:25;;;;;;;0.60;0.60;;;;;;;0.15;88.08;98801.44;5107378;28;20213;-70
2023/01/19 08:06:50;;;;;;;0.60;0.60;;;;;;;0.16;87.86;98801.44;5107786;28;20027;-70
2023/01/19 08:09:16;;;;;;;0.50;0.50;;;;;;;0.19;88.13;98813.38;5089057;28;20016;-70
2023/01/19 08:11:42;;;;;;;0.50;0.50;;;;;;;0.18;88.17;98811.66;5107420;28;20027;-71
2023/01/19 08:14:07;;;;;;;0.60;0.60;;;;;;;0.39;87.25;98816.09;5107565;28;20016;-70
2023/01/19 08:16:33;;;;;;;0.98;0.98;;;;;;;0.26;87.44;98804.09;5107484;28;20031;-70
2023/01/19 08:18:58;;;;;;;0.50;0.50;;;;;;;0.24;87.70;98812.56;5107200;28;20532;-70
2023/01/19 08:21:24;;;;;;;0.52;0.52;;;;;;;0.15;88.14;98806.53;5107435;28;20047;-70
2023/01/19 08:23:56;;;;;;;0.60;0.60;;;;;;;0.31;88.04;98804.97;5106890;28;20024;-69
2023/01/19 08:26:33;;;;;;;0.70;0.70;;;;;;;0.32;87.52;98807.53;5107258;28;20028;-69
2023/01/19 08:29:02;;;;;;;0.88;0.88;;;;;;;0.52;87.14;98816.16;5106990;28;20084;-68
2023/01/19 08:31:28;;;;;;;0.75;0.75;;;;;;;0.42;86.73;98813.56;5106994;28;20020;-70
2023/01/19 08:33:53;;;;;;;0.57;0.57;;;;;;;0.36;86.73;98818.63;5106860;28;20048;-71
2023/01/19 08:36:20;;;;;;;0.55;0.55;;;;;;;0.36;86.91;98816.94;5088894;28;20050;-70
2023/01/19 08:38:46;;;;;;;0.50;0.50;;;;;;;0.40;86.74;98820.34;5106502;28;20047;-68
2023/01/19 08:41:13;;;;;;;0.55;0.55;;;;;;;0.28;87.40;98833.00;5106725;28;20088;-69
2023/01/19 08:43:38;;;;;;;1.40;1.40;;;;;;;0.60;85.99;98833.28;5106913;28;20078;-67
2023/01/19 08:46:04;;;;;;;0.50;0.50;;;;;;;0.51;85.30;98843.44;5106840;28;20258;-68
2023/01/19 08:48:29;;;;;;;0.50;0.50;;;;;;;0.34;85.36;98830.50;5106705;28;20027;-68
2023/01/19 08:50:55;;;;;;;0.50;0.50;;;;;;;0.39;85.68;98844.16;5106450;28;20024;-67
2023/01/19 08:53:24;;;;;;;0.50;0.50;;;;;;;0.32;85.77;98833.06;5106559;28;20027;-68
2023/01/19 08:55:56;;;;;;;0.50;0.50;;;;;;;0.23;86.72;98838.94;5106533;28;20056;-68
2023/01/19 08:58:22;;;;;;;0.60;0.60;;;;;;;0.22;86.36;98841.50;5106270;28;20077;-67
2023/01/19 09:00:47;;;;;;;0.68;0.68;;;;;;;0.25;86.35;98844.06;5106041;28;20020;-68
2023/01/19 09:03:13;;;;;;;0.60;0.60;;;;;;;0.18;86.56;98848.25;5088098;28;20038;-68
2023/01/19 09:05:39;;;;;;;0.60;0.60;;;;;;;0.23;86.43;98851.72;5106482;28;20020;-68
2023/01/19 09:08:13;;;;;;;0.50;0.50;;;;;;;0.19;86.68;98844.03;5105893;28;20042;-69
2023/01/19 09:10:44;;;;;;;1.17;1.15;;;;;;;0.13;86.83;98838.88;5106119;28;20020;-68
2023/01/19 09:13:10;;;;;;;0.50;0.50;;;;;;;0.15;87.09;98842.25;5105422;28;20020;-69
2023/01/19 09:15:39;;;;;;;0.60;0.60;;;;;;;0.13;87.07;98855.00;5106035;28;20039;-70
2023/01/19 09:18:09;;;;;;;0.50;0.50;;;;;;;0.17;87.39;98856.78;5106013;28;20424;-69
2023/01/19 09:20:37;;;;;;;0.80;0.80;;;;;;;-0.04;87.55;98844.66;5106113;28;20050;-68
2023/01/19 09:23:03;;;;;;;0.50;0.50;;;;;;;0.15;88.01;98866.09;5105791;28;20034;-68
2023/01/19 09:25:29;;;;;;;0.60;0.60;;;;;;;0.15;87.98;98845.69;5106153;28;20016;-68
2023/01/19 09:27:55;;;;;;;1.90;1.80;;;;;;;0.28;87.06;98861.09;5106000;28;20016;-69
2023/01/19 09:30:21;;;;;;;0.50;0.50;;;;;;;0.20;87.53;98867.00;5106077;28;20027;-69
2023/01/19 09:32:46;;;;;;;1.25;1.20;;;;;;;0.19;87.22;98865.28;5087460;28;20041;-69
2023/01/19 09:35:12;;;;;;;0.60;0.60;;;;;;;0.18;87.09;98862.72;5105836;28;20043;-69
2023/01/19 09:37:37;;;;;;;0.60;0.60;;;;;;;0.09;87.73;98868.59;5105895;28;20088;-69
2023/01/19 09:40:04;;;;;;;0.50;0.50;;;;;;;0.23;87.03;98871.28;5105328;28;20108;-69
2023/01/19 09:42:42;;;;;;;0.60;0.60;;;;;;;0.29;86.35;98875.59;5105691;28;20023;-68
2023/01/19 09:45:25;;;;;;;0.50;0.50;;;;;;;0.11;86.50;98875.41;5105706;28;20028;-68
2023/01/19 09:47:52;;;;;;;0.60;0.60;;;;;;;0.09;86.68;98877.13;5105654;28;20430;-68
2023/01/19 09:50:33;;;;;;;0.50;0.50;;;;;;;0.03;87.31;98873.66;5105332;28;20028;-69
2023/01/19 09:53:15;;;;;;;0.60;0.60;;;;;;;0.06;87.56;98873.69;5105403;28;20032;-67
2023/01/19 09:55:41;;;;;;;;;;;;;;;0.06;87.81;98881.34;5106247;28;20065;-68
2023/01/19 09:58:15;;;;;;;0.60;0.60;;;;;;;0.09;87.17;98883.91;5105525;28;19984;-68
2023/01/19 10:00:46;;;;;;;0.50;0.50;;;;;;;0.07;87.57;98878.78;5105276;28;20076;-68
2023/01/19 10:03:15;;;;;;;0.75;0.75;;;;;;;0.08;87.66;98885.59;5105282;28;20028;-69
2023/01/19 10:06:07;;;;;;;2.90;2.05;;;;;;;-0.02;87.91;98882.09;5105288;28;20031;-69
2023/01/19 10:08:37;;;;;;;0.70;0.70;;;;;;;-0.02;88.09;98888.91;5086308;28;20024;-69
2023/01/19 10:11:16;;;;;;;0.50;0.50;;;;;;;0.09;87.50;98876.25;5105197;28;20069;-68
2023/01/19 10:13:47;;;;;;;0.70;0.70;;;;;;;0.26;86.75;98880.66;5103944;28;20515;-67
2023/01/19 10:16:30;;;;;;;0.60;0.60;;;;;;;0.11;87.01;98874.59;5105289;28;20388;-68
2023/01/19 10:19:11;;;;;;;0.50;0.50;;;;;;;-0.13;88.21;98883.69;5104922;28;20048;-68
2023/01/19 10:21:43;;;;;;;0.50;0.50;;;;;;;-0.14;88.68;98887.06;5105141;28;20040;-68
2023/01/19 10:24:39;;;;;;;0.50;0.50;;;;;;;-0.13;89.30;98888.81;5104820;28;20028;-68
2023/01/19 10:27:16;;;;;;;0.50;0.50;;;;;;;0.04;88.09;98883.88;5077925;28;20032;-68
2023/01/19 10:29:43;;;;;;;1.70;1.63;;;;;;;-0.02;88.77;98886.34;5104874;28;20404;-68
2023/01/19 10:32:11;;;;;;;3.67;3.50;;;;;;;-0.03;89.06;98890.59;5105062;28;20369;-68
2023/01/19 10:34:37;;;;;;;0.60;0.60;;;;;;;0.02;88.46;98888.09;5103552;28;20053;-68
2023/01/19 10:37:32;;;;;;;0.60;0.60;;;;;;;-0.10;89.42;98896.50;5103499;28;20027;-68
2023/01/19 10:40:09;;;;;;;0.60;0.60;;;;;;;-0.17;90.07;98893.00;5103120;28;20103;-68
2023/01/19 10:42:37;;;;;;;0.40;0.40;;;;;;;-0.24;90.53;98893.78;5104915;28;20045;-69
2023/01/19 10:45:13;;;;;;;0.60;0.60;;;;;;;-0.21;90.66;98891.28;5103327;28;20047;-68
2023/01/19 10:47:39;;;;;;;0.60;0.60;;;;;;;-0.11;90.78;98887.09;5104634;28;20034;-68
2023/01/19 10:50:38;;;;;;;0.57;0.57;;;;;;;-0.03;90.12;98889.72;5104559;28;20032;-69
2023/01/19 10:53:16;;;;;;;0.60;0.60;;;;;;;-0.12;90.66;98898.16;5078656;28;20058;-70
2023/01/19 10:55:42;;;;;;;0.60;0.60;;;;;;;-0.05;90.78;98892.28;5104790;28;20100;-69
2023/01/19 10:58:27;;;;;;;0.60;0.60;;;;;;;-0.07;90.49;98888.88;5104558;28;20038;-69
2023/01/19 11:00:53;;;;;;;0.60;0.60;;;;;;;0.06;89.66;98888.97;5104281;28;20147;-69
2023/01/19 11:03:23;;;;;;;1.05;1.05;;;;;;;0.02;90.35;98883.00;5104418;28;20039;-69
2023/01/19 11:05:49;;;;;;;1.60;1.45;;;;;;;-0.07;90.14;98881.22;5104561;28;20017;-69
2023/01/19 11:08:29;;;;;;;0.60;0.60;;;;;;;-0.03;90.94;98890.59;5104287;28;20023;-69
2023/01/19 11:11:01;;;;;;;0.60;0.60;;;;;;;0.20;90.00;98884.00;5086086;28;20032;-69
2023/01/19 11:13:26;;;;;;;0.50;0.50;;;;;;;0.08;90.89;98882.22;5104273;28;20439;-69
2023/01/19 11:16:24;;;;;;;0.50;0.50;;;;;;;0.30;89.64;98892.59;5104220;28;20507;-68
2023/01/19 11:18:55;;;;;;;0.60;0.60;;;;;;;0.15;90.38;98883.09;5101053;28;20040;-69
2023/01/19 11:21:26;;;;;;;0.80;0.80;;;;;;;0.13;90.48;98892.47;5086008;28;20088;-69
2023/01/19 11:24:01;;;;;;;1.42;1.35;;;;;;;0.10;91.16;98885.59;5104305;28;20054;-69
2023/01/19 11:26:33;;;;;;;0.60;0.60;;;;;;;0.30;90.72;98890.91;5104381;28;20104;-67
2023/01/19 11:29:02;;;;;;;0.52;0.52;;;;;;;0.20;90.16;98889.97;5104210;28;20025;-69
2023/01/19 11:31:27;;;;;;;0.85;0.85;;;;;;;0.23;90.82;98894.25;5103986;28;20027;-69
2023/01/19 11:33:57;;;;;;;0.60;0.60;;;;;;;0.33;90.58;98897.75;5104104;28;20044;-69
2023/01/19 11:36:24;;;;;;;0.60;0.60;;;;;;;0.46;89.26;98889.31;5106455;28;20483;-69
2023/01/19 11:38:55;;;;;;;0.70;0.70;;;;;;;0.38;89.70;98895.22;5107950;28;20086;-69
2023/01/19 11:41:30;;;;;;;0.80;0.80;;;;;;;0.55;88.92;98895.34;5108199;28;20036;-68
2023/01/19 11:44:10;;;;;;;0.50;0.50;;;;;;;0.47;88.83;98892.75;5108217;28;20035;-68
2023/01/19 11:46:39;;;;;;;0.60;0.60;;;;;;;0.46;88.59;98899.53;5108018;28;20031;-69
2023/01/19 11:49:14;;;;;;;1.75;1.63;;;;;;;0.47;89.00;98885.94;5107937;28;20050;-69
2023/01/19 11:51:58;;;;;;;0.60;0.60;;;;;;;0.53;88.47;98887.69;5107767;28;20059;-69
2023/01/19 11:54:59;;;;;;;2.97;2.88;;;;;;;0.55;88.89;98892.81;5107722;28;20028;-68